createdAt,value
2022-08-25T00:01:56.397Z,8.88
2022-08-25T00:04:24.394Z,9.98
2022-08-25T00:06:52.771Z,9.00
2022-08-25T00:09:23.163Z,8.43
2022-08-25T00:11:50.511Z,9.50
2022-08-25T00:14:23.980Z,12.73
2022-08-25T00:16:50.517Z,8.70
2022-08-25T00:19:20.822Z,10.15
2022-08-25T00:21:47.639Z,9.40
2022-08-25T00:24:17.226Z,9.77
2022-08-25T00:26:48.541Z,11.07
2022-08-25T00:29:15.560Z,9.32
2022-08-25T00:31:42.597Z,9.15
2022-08-25T00:34:12.361Z,10.57
2022-08-25T00:36:39.499Z,9.30
2022-08-25T00:39:08.166Z,9.00
2022-08-25T00:41:35.988Z,8.95
2022-08-25T00:44:06.212Z,9.60
2022-08-25T00:46:42.331Z,10.25
2022-08-25T00:49:24.740Z,9.20
2022-08-25T00:52:14.960Z,9.30
2022-08-25T00:54:53.179Z,9.77
2022-08-25T00:57:35.114Z,11.23
2022-08-25T01:00:06.777Z,8.77
2022-08-25T01:02:33.312Z,9.43
2022-08-25T01:04:59.756Z,9.48
2022-08-25T01:07:26.219Z,9.40
2022-08-25T01:09:53.306Z,9.55
2022-08-25T01:12:20.574Z,10.10
2022-08-25T01:14:48.826Z,9.95
2022-08-25T01:17:16.180Z,10.07
2022-08-25T01:19:42.804Z,9.65
2022-08-25T01:22:11.886Z,9.35
2022-08-25T01:24:46.407Z,9.88
2022-08-25T01:27:13.512Z,9.57
2022-08-25T01:29:40.148Z,10.07
2022-08-25T01:32:10.243Z,10.00
2022-08-25T01:34:40.932Z,9.55
2022-08-25T01:37:07.942Z,9.60
2022-08-25T01:39:38.585Z,9.27
2022-08-25T01:42:11.306Z,8.95
2022-08-25T01:44:40.792Z,9.40
2022-08-25T01:47:08.248Z,9.27
2022-08-25T01:49:35.160Z,9.93
2022-08-25T01:52:10.329Z,10.50
2022-08-25T01:54:36.768Z,9.40
2022-08-25T01:57:03.441Z,10.27
2022-08-25T01:59:30.276Z,9.02
2022-08-25T02:01:59.893Z,9.57
2022-08-25T02:04:31.933Z,9.77
2022-08-25T02:07:03.796Z,10.45
2022-08-25T02:09:30.581Z,9.27
2022-08-25T02:11:57.259Z,9.55
2022-08-25T02:14:23.844Z,9.30
2022-08-25T02:16:52.205Z,9.10
2022-08-25T02:19:20.487Z,8.93
2022-08-25T02:21:47.117Z,9.05
2022-08-25T02:24:14.031Z,9.55
2022-08-25T02:26:42.210Z,8.50
2022-08-25T02:29:09.459Z,8.93
2022-08-25T02:31:36.468Z,9.00
2022-08-25T02:34:03.996Z,9.13
2022-08-25T02:36:32.044Z,9.93
2022-08-25T02:38:58.700Z,9.02
2022-08-25T02:41:31.321Z,8.32
2022-08-25T02:43:58.751Z,8.30
2022-08-25T02:46:25.292Z,9.43
2022-08-25T02:48:53.200Z,8.50
2022-08-25T02:51:28.299Z,8.00
2022-08-25T02:53:54.755Z,8.32
2022-08-25T02:56:21.413Z,9.82
2022-08-25T02:58:48.319Z,9.55
2022-08-25T03:01:16.385Z,9.27
2022-08-25T03:03:45.040Z,10.07
2022-08-25T03:06:14.488Z,9.50
2022-08-25T03:08:42.043Z,9.85
2022-08-25T03:11:08.472Z,10.80
2022-08-25T03:13:35.176Z,9.60
2022-08-25T03:16:04.728Z,8.88
2022-08-25T03:18:31.655Z,9.07
2022-08-25T03:20:58.902Z,9.95
2022-08-25T03:23:25.874Z,11.18
2022-08-25T03:26:13.596Z,11.38
2022-08-25T03:28:41.628Z,10.65
2022-08-25T03:31:09.089Z,15.18
2022-08-25T03:33:36.392Z,11.75
2022-08-25T03:36:03.311Z,11.93
2022-08-25T03:38:29.806Z,13.65
2022-08-25T03:40:56.247Z,11.65
2022-08-25T03:43:22.879Z,10.55
2022-08-25T03:45:49.583Z,10.90
2022-08-25T03:48:17.291Z,10.52
2022-08-25T03:50:51.558Z,9.88
2022-08-25T03:53:19.148Z,9.40
2022-08-25T03:55:45.595Z,8.07
2022-08-25T03:58:12.297Z,9.77
2022-08-25T04:00:39.487Z,7.95
2022-08-25T04:03:06.289Z,8.93
2022-08-25T04:05:32.959Z,8.68
2022-08-25T04:08:01.627Z,8.48
2022-08-25T04:10:29.027Z,10.27
2022-08-25T04:12:56.043Z,9.40
2022-08-25T04:15:22.829Z,8.90
2022-08-25T04:17:51.838Z,8.75
2022-08-25T04:20:19.056Z,9.75
2022-08-25T04:22:45.789Z,8.70
2022-08-25T04:25:12.517Z,8.93
2022-08-25T04:27:39.080Z,8.48
2022-08-25T04:30:06.599Z,8.73
2022-08-25T04:32:35.189Z,8.57
2022-08-25T04:35:01.679Z,10.25
2022-08-25T04:37:28.142Z,8.52
2022-08-25T04:39:54.585Z,8.48
2022-08-25T04:42:21.674Z,9.10
2022-08-25T04:44:48.666Z,7.82
2022-08-25T04:47:15.116Z,7.85
2022-08-25T04:49:41.647Z,8.63
2022-08-25T04:52:13.197Z,8.07
2022-08-25T04:54:41.109Z,9.18
2022-08-25T04:57:07.533Z,8.93
2022-08-25T04:59:34.255Z,9.13
2022-08-25T05:02:05.110Z,8.70
2022-08-25T05:04:33.798Z,8.33
2022-08-25T05:07:00.996Z,9.20
2022-08-25T05:09:28.064Z,8.85
2022-08-25T05:11:54.850Z,9.45
2022-08-25T05:14:26.366Z,9.77
2022-08-25T05:16:54.738Z,9.55
2022-08-25T05:19:21.991Z,10.10
2022-08-25T05:21:48.464Z,9.70
2022-08-25T05:24:14.999Z,9.82
2022-08-25T05:26:43.384Z,8.75
2022-08-25T05:29:10.914Z,8.88
2022-08-25T05:31:42.327Z,9.10
2022-08-25T05:34:11.858Z,8.32
2022-08-25T05:36:43.017Z,10.13
2022-08-25T05:39:10.257Z,9.45
2022-08-25T05:41:37.051Z,10.55
2022-08-25T05:44:03.759Z,9.18
2022-08-25T05:46:31.553Z,9.35
2022-08-25T05:48:58.834Z,10.50
2022-08-25T05:51:26.195Z,9.13
2022-08-25T05:53:52.840Z,9.13
2022-08-25T05:56:20.174Z,9.25
2022-08-25T05:58:47.527Z,8.68
2022-08-25T06:01:43.467Z,9.02
2022-08-25T06:04:12.114Z,13.82
2022-08-25T06:06:39.343Z,8.77
2022-08-25T06:09:08.432Z,14.60
2022-08-25T06:11:37.911Z,7.65
2022-08-25T06:14:04.750Z,8.75
2022-08-25T06:16:31.782Z,12.40
2022-08-25T06:18:58.401Z,12.70
2022-08-25T06:21:25.228Z,8.35
2022-08-25T06:23:51.674Z,9.40
2022-08-25T06:26:21.325Z,14.32
2022-08-25T06:28:49.008Z,8.38
2022-08-25T06:31:15.557Z,8.23
2022-08-25T06:33:42.108Z,12.07
2022-08-25T06:36:08.719Z,11.85
2022-08-25T06:38:35.740Z,17.02
2022-08-25T06:41:04.332Z,11.02
2022-08-25T06:43:33.088Z,11.95
2022-08-25T06:46:11.510Z,13.80
2022-08-25T06:48:38.359Z,17.08
2022-08-25T06:51:07.309Z,11.15
2022-08-25T06:53:34.220Z,10.45
2022-08-25T06:56:05.952Z,8.60
2022-08-25T06:58:33.828Z,15.38
2022-08-25T07:01:19.721Z,17.50
2022-08-25T07:03:48.010Z,13.07
2022-08-25T07:06:15.258Z,8.43
2022-08-25T07:08:46.453Z,10.85
2022-08-25T07:11:17.357Z,14.02
2022-08-25T07:13:45.356Z,11.00
2022-08-25T07:16:12.719Z,8.32
2022-08-25T07:18:39.327Z,9.30
2022-08-25T07:21:08.888Z,8.18
2022-08-25T07:23:36.848Z,12.13
2022-08-25T07:26:36.354Z,8.23
2022-08-25T07:29:12.063Z,6.70
2022-08-25T07:31:39.416Z,9.68
2022-08-25T07:34:26.117Z,7.47
2022-08-25T07:36:54.037Z,9.05
2022-08-25T07:39:21.991Z,6.78
2022-08-25T07:41:52.232Z,7.30
2022-08-25T07:44:21.628Z,8.55
2022-08-25T07:46:50.229Z,4.47
2022-08-25T07:49:18.136Z,6.32
2022-08-25T07:52:05.697Z,5.25
2022-08-25T07:54:35.551Z,7.10
2022-08-25T07:59:39.329Z,7.47
2022-08-25T08:02:09.024Z,6.68
2022-08-25T08:04:46.249Z,9.90
2022-08-25T08:07:12.760Z,6.30
2022-08-25T08:09:39.297Z,9.38
2022-08-25T08:12:06.538Z,6.72
2022-08-25T08:14:32.968Z,7.57
2022-08-25T08:16:59.815Z,4.47
2022-08-25T08:19:26.518Z,14.43
2022-08-25T08:21:54.333Z,6.00
2022-08-25T08:24:40.818Z,11.02
2022-08-25T08:27:11.335Z,10.43
2022-08-25T08:29:39.156Z,10.00
2022-08-25T08:32:09.648Z,6.07
2022-08-25T08:34:36.763Z,9.38
2022-08-25T08:37:03.570Z,7.53
2022-08-25T08:39:30.227Z,11.85
2022-08-25T08:42:17.373Z,9.43
2022-08-25T08:44:46.754Z,9.35
2022-08-25T08:47:31.269Z,5.93
2022-08-25T08:50:04.085Z,7.05
2022-08-25T08:52:43.228Z,4.82
2022-08-25T08:55:39.479Z,5.93
2022-08-25T08:58:13.050Z,4.70
2022-08-25T09:00:52.346Z,5.55
2022-08-25T09:03:27.225Z,9.32
2022-08-25T09:05:57.579Z,5.68
2022-08-25T09:08:24.019Z,10.45
2022-08-25T09:11:31.026Z,4.00
2022-08-25T09:14:16.254Z,3.90
2022-08-25T09:16:54.818Z,4.07
2022-08-25T09:20:02.953Z,9.45
2022-08-25T09:23:03.126Z,6.63
2022-08-25T09:25:56.242Z,15.25
2022-08-25T09:28:36.471Z,5.40
2022-08-25T09:31:12.516Z,9.63
2022-08-25T09:33:39.251Z,4.00
2022-08-25T09:36:08.843Z,9.52
2022-08-25T09:38:36.267Z,6.03
2022-08-25T09:41:03.781Z,6.18
2022-08-25T09:43:33.068Z,4.07
2022-08-25T09:46:23.220Z,8.73
2022-08-25T09:48:59.273Z,5.07
2022-08-25T09:51:42.479Z,8.15
2022-08-25T09:54:12.663Z,4.63
2022-08-25T09:56:49.901Z,8.05
2022-08-25T09:59:34.427Z,7.55
2022-08-25T10:02:23.824Z,8.00
2022-08-25T10:04:50.724Z,8.73
2022-08-25T10:07:27.552Z,6.93
2022-08-25T10:09:57.380Z,10.77
2022-08-25T10:12:37.259Z,4.90
2022-08-25T10:15:29.073Z,7.00
2022-08-25T10:17:56.576Z,5.18
2022-08-25T10:20:27.165Z,7.22
2022-08-25T10:23:13.025Z,5.63
2022-08-25T10:26:00.411Z,6.27
2022-08-25T10:28:41.352Z,5.70
2022-08-25T10:31:22.338Z,7.07
2022-08-25T10:33:52.392Z,10.45
2022-08-25T10:36:23.344Z,9.88
2022-08-25T10:39:01.855Z,6.15
2022-08-25T10:41:43.864Z,5.82
2022-08-25T10:44:52.730Z,6.65
2022-08-25T10:47:39.253Z,3.72
2022-08-25T10:50:08.353Z,3.60
2022-08-25T10:52:39.271Z,5.00
2022-08-25T10:55:25.951Z,4.75
2022-08-25T10:58:23.261Z,6.22
2022-08-25T11:01:18.667Z,4.85
2022-08-25T11:03:59.674Z,3.30
2022-08-25T11:06:40.543Z,8.27
2022-08-25T11:09:12.895Z,7.88
2022-08-25T11:11:46.290Z,6.20
2022-08-25T11:14:35.420Z,6.28
2022-08-25T11:17:09.731Z,5.78
2022-08-25T11:19:49.002Z,99.13
2022-08-25T11:22:36.936Z,4.97
2022-08-25T11:25:25.827Z,4.20
2022-08-25T11:28:06.216Z,6.65
2022-08-25T11:30:33.175Z,3.78
2022-08-25T11:33:00.062Z,4.30
2022-08-25T11:35:58.868Z,5.25
2022-08-25T11:39:00.956Z,3.08
2022-08-25T11:44:53.251Z,7.00
2022-08-25T11:47:38.417Z,8.18
2022-08-25T11:50:25.873Z,2.97
2022-08-25T11:53:02.234Z,3.55
2022-08-25T11:55:34.847Z,8.10
2022-08-25T11:58:40.590Z,7.32
2022-08-25T12:01:43.071Z,3.15
2022-08-25T12:04:44.406Z,4.35
2022-08-25T12:07:14.870Z,6.32
2022-08-25T12:09:50.831Z,5.93
2022-08-25T12:12:56.484Z,8.00
2022-08-25T12:15:32.157Z,5.15
2022-08-25T12:18:15.442Z,7.07
2022-08-25T12:20:54.780Z,2.95
2022-08-25T12:24:02.833Z,3.38
2022-08-25T12:26:40.303Z,2.85
2022-08-25T12:29:25.006Z,4.95
2022-08-25T12:31:57.452Z,4.57
2022-08-25T12:34:44.239Z,8.07
2022-08-25T12:37:16.425Z,6.18
2022-08-25T12:40:06.464Z,2.65
2022-08-25T12:42:40.765Z,2.80
2022-08-25T12:45:34.380Z,3.08
2022-08-25T12:48:25.992Z,2.97
2022-08-25T12:50:57.661Z,3.38
2022-08-25T12:53:40.368Z,7.03
2022-08-25T12:56:31.351Z,3.00
2022-08-25T12:59:18.647Z,5.45
2022-08-25T13:02:10.056Z,2.88
2022-08-25T13:04:55.048Z,3.00
2022-08-25T13:07:21.506Z,4.93
2022-08-25T13:10:07.452Z,5.45
2022-08-25T13:12:46.605Z,3.90
2022-08-25T13:15:15.974Z,3.50
2022-08-25T13:17:42.827Z,3.40
2022-08-25T13:20:15.282Z,6.20
2022-08-25T13:22:46.863Z,8.13
2022-08-25T13:25:18.554Z,2.92
2022-08-25T13:27:57.476Z,4.57
2022-08-25T13:30:36.550Z,4.03
2022-08-25T13:33:21.798Z,3.80
2022-08-25T13:35:52.377Z,2.83
2022-08-25T13:38:19.437Z,5.93
2022-08-25T13:40:46.018Z,5.88
2022-08-25T13:43:14.170Z,6.40
2022-08-25T13:45:47.219Z,3.38
2022-08-25T13:48:30.817Z,4.80
2022-08-25T13:51:23.665Z,4.68
2022-08-25T13:54:02.728Z,4.47
2022-08-25T13:56:41.830Z,3.40
2022-08-25T13:59:40.104Z,9.30
2022-08-25T14:02:09.168Z,3.33
2022-08-25T14:04:51.572Z,4.65
2022-08-25T14:07:34.036Z,3.03
2022-08-25T14:10:31.161Z,2.90
2022-08-25T14:13:14.462Z,3.65
2022-08-25T14:15:45.046Z,5.45
2022-08-25T14:18:26.889Z,4.15
2022-08-25T14:20:56.029Z,5.28
2022-08-25T14:23:26.926Z,8.55
2022-08-25T14:25:56.396Z,3.13
2022-08-25T14:28:25.979Z,3.35
2022-08-25T14:31:08.779Z,5.38
2022-08-25T14:34:00.925Z,6.15
2022-08-25T14:36:29.795Z,7.00
2022-08-25T14:38:57.519Z,4.70
2022-08-25T14:41:25.371Z,3.25
2022-08-25T14:43:52.548Z,4.75
2022-08-25T14:46:24.653Z,4.70
2022-08-25T14:48:56.555Z,4.53
2022-08-25T14:51:25.725Z,8.20
2022-08-25T14:53:57.314Z,6.47
2022-08-25T14:56:24.096Z,8.00
2022-08-25T14:58:54.438Z,4.13
2022-08-25T15:01:28.445Z,3.03
2022-08-25T15:04:01.696Z,6.15
2022-08-25T15:06:28.540Z,3.90
2022-08-25T15:09:08.244Z,4.30
2022-08-25T15:11:36.452Z,4.47
2022-08-25T15:14:05.383Z,3.03
2022-08-25T15:16:50.751Z,9.77
2022-08-25T15:19:19.824Z,9.57
2022-08-25T15:21:47.777Z,6.63
2022-08-25T15:24:17.504Z,4.47
2022-08-25T15:31:53.939Z,7.88
2022-08-25T15:34:20.566Z,7.85
2022-08-25T15:36:47.670Z,9.55
2022-08-25T15:39:15.072Z,3.50
2022-08-25T15:41:46.093Z,5.43
2022-08-25T15:44:16.031Z,3.80
2022-08-25T15:46:47.083Z,8.48
2022-08-25T15:49:16.279Z,3.50
2022-08-25T15:51:52.224Z,4.05
2022-08-25T15:54:18.696Z,4.78
2022-08-25T15:56:45.832Z,6.90
2022-08-25T15:59:13.463Z,3.63
2022-08-25T16:01:41.302Z,8.13
2022-08-25T16:04:07.851Z,5.38
2022-08-25T16:06:34.351Z,3.25
2022-08-25T16:09:01.760Z,4.13
2022-08-25T16:11:30.433Z,7.72
2022-08-25T16:13:57.514Z,9.50
2022-08-25T16:16:26.854Z,4.80
2022-08-25T16:18:54.190Z,5.43
2022-08-25T16:21:25.956Z,3.80
2022-08-25T16:23:59.733Z,7.38
2022-08-25T16:26:30.776Z,4.38
2022-08-25T16:28:57.624Z,6.63
2022-08-25T16:31:24.589Z,4.43
2022-08-25T16:33:54.678Z,7.22
2022-08-25T16:36:27.087Z,5.55
2022-08-25T16:38:55.390Z,3.53
2022-08-25T16:41:25.312Z,3.63
2022-08-25T16:43:52.797Z,5.03
2022-08-25T16:46:20.987Z,8.18
2022-08-25T16:48:48.621Z,5.10
2022-08-25T16:51:19.287Z,4.22
2022-08-25T16:54:07.523Z,4.45
2022-08-25T16:56:35.691Z,7.22
2022-08-25T16:59:06.233Z,4.88
2022-08-25T17:01:36.357Z,6.28
2022-08-25T17:04:04.514Z,5.10
2022-08-25T17:06:35.659Z,3.85
2022-08-25T17:11:35.074Z,12.75
2022-08-25T17:14:04.520Z,4.15
2022-08-25T17:16:37.826Z,4.20
2022-08-25T17:19:08.070Z,6.43
2022-08-25T17:21:45.119Z,6.55
2022-08-25T17:24:13.247Z,4.15
2022-08-25T17:26:45.963Z,5.63
2022-08-25T17:29:12.742Z,8.73
2022-08-25T17:31:39.988Z,11.50
2022-08-25T17:34:12.836Z,6.10
2022-08-25T17:36:43.483Z,8.07
2022-08-25T17:39:12.357Z,18.00
2022-08-25T17:41:39.653Z,13.18
2022-08-25T17:44:07.284Z,6.80
2022-08-25T17:46:33.907Z,11.48
2022-08-25T17:49:00.566Z,6.97
2022-08-25T17:51:29.703Z,18.67
2022-08-25T17:53:59.072Z,9.70
2022-08-25T17:56:27.225Z,10.35
2022-08-25T17:58:55.880Z,9.20
2022-08-25T18:01:28.302Z,9.45
2022-08-25T18:03:56.152Z,8.55
2022-08-25T18:06:23.785Z,6.88
2022-08-25T18:08:52.176Z,9.63
2022-08-25T18:11:21.554Z,11.15
2022-08-25T18:13:48.019Z,11.05
2022-08-25T18:16:17.215Z,14.15
2022-08-25T18:18:44.501Z,7.20
2022-08-25T18:21:13.568Z,8.82
2022-08-25T18:23:41.733Z,12.77
2022-08-25T18:26:08.918Z,7.55
2022-08-25T18:28:39.530Z,18.90
2022-08-25T18:31:06.499Z,15.88
2022-08-25T18:33:34.124Z,12.48
2022-08-25T18:36:02.068Z,8.85
2022-08-25T18:38:47.458Z,14.48
2022-08-25T18:41:13.947Z,8.50
2022-08-25T18:43:40.696Z,10.07
2022-08-25T18:46:08.270Z,8.80
2022-08-25T18:48:36.883Z,20.05
2022-08-25T18:51:04.583Z,9.70
2022-08-25T18:53:37.483Z,9.40
2022-08-25T18:56:16.452Z,9.68
2022-08-25T18:58:42.900Z,13.30
2022-08-25T19:01:14.362Z,8.75
2022-08-25T19:03:43.023Z,16.52
2022-08-25T19:06:09.814Z,13.73
2022-08-25T19:08:39.388Z,19.58
2022-08-25T19:11:08.539Z,14.88
2022-08-25T19:13:35.112Z,15.07
2022-08-25T19:16:34.176Z,20.05
2022-08-25T19:19:01.395Z,18.58
2022-08-25T19:21:30.133Z,24.20
2022-08-25T19:23:56.584Z,23.45
2022-08-25T19:26:23.536Z,23.25
2022-08-25T19:28:52.638Z,23.75
2022-08-25T19:31:24.592Z,24.00
2022-08-25T19:33:53.160Z,31.13
2022-08-25T19:36:27.943Z,29.73
2022-08-25T19:38:58.178Z,29.73
2022-08-25T19:41:25.067Z,33.30
2022-08-25T19:43:56.402Z,32.50
2022-08-25T19:46:33.120Z,30.27
2022-08-25T19:49:09.540Z,32.92
2022-08-25T19:51:38.236Z,34.40
2022-08-25T19:54:06.857Z,41.22
2022-08-25T19:56:36.259Z,36.05
2022-08-25T19:59:03.657Z,38.80
2022-08-25T20:01:30.167Z,45.50
2022-08-25T20:03:56.958Z,39.70
2022-08-25T20:06:24.205Z,36.40
2022-08-25T20:08:58.809Z,38.83
2022-08-25T20:11:28.748Z,41.55
2022-08-25T20:13:58.281Z,39.25
2022-08-25T20:16:28.270Z,39.20
2022-08-25T20:18:55.035Z,41.83
2022-08-25T20:21:21.590Z,42.53
2022-08-25T20:24:07.470Z,37.53
2022-08-25T20:26:36.529Z,35.97
2022-08-25T20:29:05.154Z,36.42
2022-08-25T20:31:32.440Z,31.92
2022-08-25T20:34:00.992Z,28.08
2022-08-25T20:36:30.016Z,31.17
2022-08-25T20:38:59.158Z,27.10
2022-08-25T20:41:25.771Z,33.33
2022-08-25T20:43:52.345Z,25.95
2022-08-25T20:46:19.074Z,28.95
2022-08-25T20:48:45.601Z,27.98
2022-08-25T20:51:12.921Z,22.38
2022-08-25T20:53:42.324Z,21.85
2022-08-25T20:56:19.200Z,27.08
2022-08-25T20:58:46.384Z,24.90
2022-08-25T21:01:23.187Z,30.30
2022-08-25T21:03:50.588Z,22.92
2022-08-25T21:06:17.695Z,22.80
2022-08-25T21:08:46.792Z,27.98
2022-08-25T21:11:15.428Z,25.67
2022-08-25T21:13:42.033Z,27.02
2022-08-25T21:16:08.981Z,28.77
2022-08-25T21:18:36.233Z,21.70
2022-08-25T21:21:12.246Z,30.25
2022-08-25T21:23:40.038Z,26.58
2022-08-25T21:26:13.696Z,24.38
2022-08-25T21:28:40.155Z,20.67
2022-08-25T21:31:15.211Z,27.70
2022-08-25T21:33:42.758Z,22.75
2022-08-25T21:36:11.369Z,26.50
2022-08-25T21:38:39.984Z,23.90
2022-08-25T21:41:15.439Z,26.40
2022-08-25T21:43:42.475Z,21.52
2022-08-25T21:46:13.418Z,23.75
2022-08-25T21:48:40.145Z,16.90
2022-08-25T21:51:13.532Z,18.10
2022-08-25T21:53:40.459Z,21.50
2022-08-25T21:56:17.266Z,19.98
2022-08-25T21:58:46.484Z,14.10
2022-08-25T22:01:19.868Z,16.88
2022-08-25T22:03:47.367Z,15.53
2022-08-25T22:06:14.883Z,16.48
2022-08-25T22:08:43.192Z,11.02
2022-08-25T22:11:10.709Z,12.95
2022-08-25T22:13:37.983Z,19.98
2022-08-25T22:16:07.756Z,17.02
2022-08-25T22:18:34.738Z,19.70
2022-08-25T22:21:01.529Z,11.13
2022-08-25T22:23:44.100Z,15.70
2022-08-25T22:26:12.027Z,11.30
2022-08-25T22:28:39.171Z,14.15
2022-08-25T22:33:37.130Z,17.65
2022-08-25T22:36:28.475Z,13.65
2022-08-25T22:38:55.699Z,11.82
2022-08-25T22:41:23.629Z,13.55
2022-08-25T22:43:53.017Z,9.90
2022-08-25T22:46:21.540Z,13.75
2022-08-25T22:48:50.377Z,9.35
2022-08-25T22:51:27.043Z,10.20
2022-08-25T22:53:54.629Z,11.05
2022-08-25T22:56:29.736Z,12.52
2022-08-25T22:59:02.544Z,10.32
2022-08-25T23:01:29.591Z,6.57
2022-08-25T23:03:56.050Z,10.57
2022-08-25T23:06:25.012Z,10.60
2022-08-25T23:08:53.591Z,6.65
2022-08-25T23:11:22.246Z,10.45
2022-08-25T23:13:49.596Z,8.13
2022-08-25T23:16:17.089Z,14.18
2022-08-25T23:18:44.858Z,21.83
2022-08-25T23:21:35.061Z,10.07
2022-08-25T23:24:05.408Z,4.35
2022-08-25T23:26:36.271Z,7.10
2022-08-25T23:29:07.803Z,8.18
2022-08-25T23:31:44.650Z,4.95
2022-08-25T23:34:11.448Z,7.22
2022-08-25T23:36:39.805Z,11.95
2022-08-25T23:39:07.009Z,6.85
2022-08-25T23:41:34.787Z,7.90
2022-08-25T23:44:05.199Z,10.02
2022-08-25T23:46:34.752Z,5.57
2022-08-25T23:49:03.029Z,8.48
2022-08-25T23:51:37.161Z,4.20
2022-08-25T23:54:07.010Z,7.65
2022-08-25T23:56:36.771Z,7.57
2022-08-25T23:59:10.590Z,7.60
